sensor_id;sensor_type;location;lat;lon;timestamp;P1;durP1;ratioP1;P2;durP2;ratioP2
17614;SDS011;8926;49.720;6.576;2023-12-20T00:01:16;1.90;;;1.80;;
17614;SDS011;8926;49.720;6.576;2023-12-20T00:03:41;1.70;;;1.60;;
17614;SDS011;8926;49.720;6.576;2023-12-20T00:06:06;1.50;;;1.37;;
17614;SDS011;8926;49.720;6.576;2023-12-20T00:08:32;1.50;;;1.40;;
17614;SDS011;8926;49.720;6.576;2023-12-20T00:10:57;1.10;;;1.10;;
17614;SDS011;8926;49.720;6.576;2023-12-20T00:13:22;0.93;;;0.93;;
17614;SDS011;8926;49.720;6.576;2023-12-20T00:15:48;1.00;;;1.00;;
17614;SDS011;8926;49.720;6.576;2023-12-20T00:18:13;1.00;;;1.00;;
17614;SDS011;8926;49.720;6.576;2023-12-20T00:20:38;0.90;;;0.90;;
17614;SDS011;8926;49.720;6.576;2023-12-20T00:23:04;0.90;;;0.90;;
17614;SDS011;8926;49.720;6.576;2023-12-20T00:25:29;1.23;;;1.13;;
17614;SDS011;8926;49.720;6.576;2023-12-20T00:27:54;1.00;;;1.00;;
17614;SDS011;8926;49.720;6.576;2023-12-20T00:30:19;0.80;;;0.80;;
17614;SDS011;8926;49.720;6.576;2023-12-20T00:32:45;1.10;;;1.10;;
17614;SDS011;8926;49.720;6.576;2023-12-20T00:35:13;0.83;;;0.83;;
17614;SDS011;8926;49.720;6.576;2023-12-20T00:37:39;0.90;;;0.90;;
17614;SDS011;8926;49.720;6.576;2023-12-20T00:40:04;1.13;;;1.00;;
17614;SDS011;8926;49.720;6.576;2023-12-20T00:42:30;1.07;;;1.07;;
17614;SDS011;8926;49.720;6.576;2023-12-20T00:44:55;1.90;;;1.33;;
17614;SDS011;8926;49.720;6.576;2023-12-20T00:47:21;1.73;;;1.47;;
17614;SDS011;8926;49.720;6.576;2023-12-20T00:49:47;1.13;;;1.13;;
17614;SDS011;8926;49.720;6.576;2023-12-20T00:52:12;0.90;;;0.90;;
17614;SDS011;8926;49.720;6.576;2023-12-20T00:54:37;0.70;;;0.70;;
17614;SDS011;8926;49.720;6.576;2023-12-20T00:57:03;0.90;;;0.90;;
17614;SDS011;8926;49.720;6.576;2023-12-20T00:59:28;0.90;;;0.90;;
17614;SDS011;8926;49.720;6.576;2023-12-20T01:01:53;1.00;;;1.00;;
17614;SDS011;8926;49.720;6.576;2023-12-20T01:04:19;1.10;;;1.00;;
17614;SDS011;8926;49.720;6.576;2023-12-20T01:06:44;0.97;;;0.97;;
17614;SDS011;8926;49.720;6.576;2023-12-20T01:09:09;0.80;;;0.80;;
17614;SDS011;8926;49.720;6.576;2023-12-20T01:11:34;0.80;;;0.80;;
17614;SDS011;8926;49.720;6.576;2023-12-20T01:14:00;0.73;;;0.73;;
17614;SDS011;8926;49.720;6.576;2023-12-20T01:16:25;1.03;;;1.03;;
17614;SDS011;8926;49.720;6.576;2023-12-20T01:18:50;0.90;;;0.90;;
17614;SDS011;8926;49.720;6.576;2023-12-20T01:21:16;0.70;;;0.70;;
17614;SDS011;8926;49.720;6.576;2023-12-20T01:23:41;0.80;;;0.80;;
17614;SDS011;8926;49.720;6.576;2023-12-20T01:26:06;0.77;;;0.77;;
17614;SDS011;8926;49.720;6.576;2023-12-20T01:28:32;0.77;;;0.77;;
17614;SDS011;8926;49.720;6.576;2023-12-20T01:30:57;0.70;;;0.70;;
17614;SDS011;8926;49.720;6.576;2023-12-20T01:33:23;0.70;;;0.70;;
17614;SDS011;8926;49.720;6.576;2023-12-20T01:35:48;0.90;;;0.90;;
17614;SDS011;8926;49.720;6.576;2023-12-20T01:38:14;0.90;;;0.90;;
17614;SDS011;8926;49.720;6.576;2023-12-20T01:40:39;0.90;;;0.90;;
17614;SDS011;8926;49.720;6.576;2023-12-20T01:43:06;1.00;;;1.00;;
17614;SDS011;8926;49.720;6.576;2023-12-20T01:45:37;0.80;;;0.80;;
17614;SDS011;8926;49.720;6.576;2023-12-20T01:48:02;0.90;;;0.90;;
17614;SDS011;8926;49.720;6.576;2023-12-20T01:50:30;1.10;;;1.10;;
17614;SDS011;8926;49.720;6.576;2023-12-20T01:52:56;0.90;;;0.90;;
17614;SDS011;8926;49.720;6.576;2023-12-20T01:55:25;0.90;;;0.90;;
17614;SDS011;8926;49.720;6.576;2023-12-20T01:57:50;0.90;;;0.90;;
17614;SDS011;8926;49.720;6.576;2023-12-20T02:00:16;0.80;;;0.80;;
17614;SDS011;8926;49.720;6.576;2023-12-20T02:02:42;0.73;;;0.70;;
17614;SDS011;8926;49.720;6.576;2023-12-20T02:05:10;0.60;;;0.60;;
17614;SDS011;8926;49.720;6.576;2023-12-20T02:07:36;0.70;;;0.70;;
17614;SDS011;8926;49.720;6.576;2023-12-20T02:10:01;0.60;;;0.60;;
17614;SDS011;8926;49.720;6.576;2023-12-20T02:12:27;0.80;;;0.80;;
17614;SDS011;8926;49.720;6.576;2023-12-20T02:14:52;0.80;;;0.80;;
17614;SDS011;8926;49.720;6.576;2023-12-20T02:17:19;0.70;;;0.70;;
17614;SDS011;8926;49.720;6.576;2023-12-20T02:19:44;0.40;;;0.40;;
17614;SDS011;8926;49.720;6.576;2023-12-20T02:22:13;0.43;;;0.43;;
17614;SDS011;8926;49.720;6.576;2023-12-20T02:24:38;0.60;;;0.60;;
17614;SDS011;8926;49.720;6.576;2023-12-20T02:27:05;0.60;;;0.60;;
17614;SDS011;8926;49.720;6.576;2023-12-20T02:29:32;0.43;;;0.43;;
17614;SDS011;8926;49.720;6.576;2023-12-20T02:32:00;0.63;;;0.63;;
17614;SDS011;8926;49.720;6.576;2023-12-20T02:34:26;0.93;;;0.93;;
17614;SDS011;8926;49.720;6.576;2023-12-20T02:36:51;0.67;;;0.67;;
17614;SDS011;8926;49.720;6.576;2023-12-20T02:39:17;0.77;;;0.77;;
17614;SDS011;8926;49.720;6.576;2023-12-20T02:41:45;1.03;;;0.80;;
17614;SDS011;8926;49.720;6.576;2023-12-20T02:44:10;0.90;;;0.90;;
17614;SDS011;8926;49.720;6.576;2023-12-20T02:46:35;0.97;;;0.97;;
17614;SDS011;8926;49.720;6.576;2023-12-20T02:49:01;0.90;;;0.90;;
17614;SDS011;8926;49.720;6.576;2023-12-20T02:51:26;1.00;;;0.90;;
17614;SDS011;8926;49.720;6.576;2023-12-20T02:53:51;1.10;;;1.10;;
17614;SDS011;8926;49.720;6.576;2023-12-20T02:56:16;1.30;;;1.20;;
17614;SDS011;8926;49.720;6.576;2023-12-20T02:58:42;1.30;;;1.30;;
17614;SDS011;8926;49.720;6.576;2023-12-20T03:01:07;1.20;;;1.20;;
17614;SDS011;8926;49.720;6.576;2023-12-20T03:03:32;1.27;;;1.23;;
17614;SDS011;8926;49.720;6.576;2023-12-20T03:05:58;1.13;;;1.10;;
17614;SDS011;8926;49.720;6.576;2023-12-20T03:08:23;1.07;;;1.00;;
17614;SDS011;8926;49.720;6.576;2023-12-20T03:10:48;1.10;;;1.00;;
17614;SDS011;8926;49.720;6.576;2023-12-20T03:13:14;1.33;;;1.23;;
17614;SDS011;8926;49.720;6.576;2023-12-20T03:15:39;1.20;;;1.20;;
17614;SDS011;8926;49.720;6.576;2023-12-20T03:18:05;1.10;;;1.10;;
17614;SDS011;8926;49.720;6.576;2023-12-20T03:20:30;0.90;;;0.90;;
17614;SDS011;8926;49.720;6.576;2023-12-20T03:22:59;1.30;;;1.30;;
17614;SDS011;8926;49.720;6.576;2023-12-20T03:25:24;1.23;;;1.23;;
17614;SDS011;8926;49.720;6.576;2023-12-20T03:27:49;1.73;;;1.50;;
17614;SDS011;8926;49.720;6.576;2023-12-20T03:30:15;1.40;;;1.30;;
17614;SDS011;8926;49.720;6.576;2023-12-20T03:32:40;1.23;;;1.23;;
17614;SDS011;8926;49.720;6.576;2023-12-20T03:35:05;1.83;;;1.50;;
17614;SDS011;8926;49.720;6.576;2023-12-20T03:37:31;2.00;;;1.90;;
17614;SDS011;8926;49.720;6.576;2023-12-20T03:39:56;2.10;;;2.00;;
17614;SDS011;8926;49.720;6.576;2023-12-20T03:42:21;1.90;;;1.73;;
17614;SDS011;8926;49.720;6.576;2023-12-20T03:44:47;1.70;;;1.60;;
17614;SDS011;8926;49.720;6.576;2023-12-20T03:47:12;1.90;;;1.80;;
17614;SDS011;8926;49.720;6.576;2023-12-20T03:49:37;1.43;;;1.40;;
17614;SDS011;8926;49.720;6.576;2023-12-20T03:52:03;1.40;;;1.30;;
17614;SDS011;8926;49.720;6.576;2023-12-20T03:54:29;1.77;;;1.50;;
17614;SDS011;8926;49.720;6.576;2023-12-20T03:56:54;2.40;;;1.90;;
17614;SDS011;8926;49.720;6.576;2023-12-20T03:59:20;2.33;;;1.60;;
17614;SDS011;8926;49.720;6.576;2023-12-20T04:01:45;1.97;;;1.60;;
17614;SDS011;8926;49.720;6.576;2023-12-20T04:04:10;1.80;;;1.70;;
17614;SDS011;8926;49.720;6.576;2023-12-20T04:06:36;1.57;;;1.40;;
17614;SDS011;8926;49.720;6.576;2023-12-20T04:09:02;2.37;;;1.50;;
17614;SDS011;8926;49.720;6.576;2023-12-20T04:11:27;1.70;;;1.30;;
17614;SDS011;8926;49.720;6.576;2023-12-20T04:13:53;2.20;;;1.80;;
17614;SDS011;8926;49.720;6.576;2023-12-20T04:16:18;2.90;;;1.23;;
17614;SDS011;8926;49.720;6.576;2023-12-20T04:18:43;3.20;;;1.30;;
17614;SDS011;8926;49.720;6.576;2023-12-20T04:21:09;1.57;;;1.20;;
17614;SDS011;8926;49.720;6.576;2023-12-20T04:23:34;1.30;;;1.20;;
17614;SDS011;8926;49.720;6.576;2023-12-20T04:25:59;1.50;;;1.40;;
17614;SDS011;8926;49.720;6.576;2023-12-20T04:28:25;1.97;;;1.47;;
17614;SDS011;8926;49.720;6.576;2023-12-20T04:30:50;2.87;;;1.57;;
17614;SDS011;8926;49.720;6.576;2023-12-20T04:33:15;2.00;;;1.30;;
17614;SDS011;8926;49.720;6.576;2023-12-20T04:35:40;2.17;;;1.37;;
17614;SDS011;8926;49.720;6.576;2023-12-20T04:38:07;1.97;;;1.10;;
17614;SDS011;8926;49.720;6.576;2023-12-20T04:40:33;1.00;;;0.80;;
17614;SDS011;8926;49.720;6.576;2023-12-20T04:42:58;1.17;;;0.90;;
17614;SDS011;8926;49.720;6.576;2023-12-20T04:45:23;2.00;;;1.23;;
17614;SDS011;8926;49.720;6.576;2023-12-20T04:47:49;1.27;;;0.97;;
17614;SDS011;8926;49.720;6.576;2023-12-20T04:50:15;1.07;;;0.97;;
17614;SDS011;8926;49.720;6.576;2023-12-20T04:52:41;1.17;;;0.90;;
17614;SDS011;8926;49.720;6.576;2023-12-20T04:55:07;0.80;;;0.80;;
17614;SDS011;8926;49.720;6.576;2023-12-20T04:57:32;0.90;;;0.90;;
17614;SDS011;8926;49.720;6.576;2023-12-20T04:59:57;1.43;;;0.87;;
17614;SDS011;8926;49.720;6.576;2023-12-20T05:02:23;1.27;;;0.87;;
17614;SDS011;8926;49.720;6.576;2023-12-20T05:04:48;0.90;;;0.63;;
17614;SDS011;8926;49.720;6.576;2023-12-20T05:07:13;0.70;;;0.70;;
17614;SDS011;8926;49.720;6.576;2023-12-20T05:09:39;0.60;;;0.50;;
17614;SDS011;8926;49.720;6.576;2023-12-20T05:12:04;0.60;;;0.60;;
17614;SDS011;8926;49.720;6.576;2023-12-20T05:14:30;0.73;;;0.60;;
17614;SDS011;8926;49.720;6.576;2023-12-20T05:16:55;0.60;;;0.60;;
17614;SDS011;8926;49.720;6.576;2023-12-20T05:19:21;0.70;;;0.70;;
17614;SDS011;8926;49.720;6.576;2023-12-20T05:21:47;1.43;;;0.80;;
17614;SDS011;8926;49.720;6.576;2023-12-20T05:24:12;1.20;;;1.00;;
17614;SDS011;8926;49.720;6.576;2023-12-20T05:26:38;1.40;;;1.30;;
17614;SDS011;8926;49.720;6.576;2023-12-20T05:29:03;1.40;;;1.23;;
17614;SDS011;8926;49.720;6.576;2023-12-20T05:31:28;1.30;;;1.20;;
17614;SDS011;8926;49.720;6.576;2023-12-20T05:33:54;1.07;;;0.97;;
17614;SDS011;8926;49.720;6.576;2023-12-20T05:36:19;1.40;;;1.00;;
17614;SDS011;8926;49.720;6.576;2023-12-20T05:38:44;2.53;;;0.83;;
17614;SDS011;8926;49.720;6.576;2023-12-20T05:41:10;0.57;;;0.57;;
17614;SDS011;8926;49.720;6.576;2023-12-20T05:43:35;1.00;;;0.70;;
17614;SDS011;8926;49.720;6.576;2023-12-20T05:46:00;1.13;;;0.80;;
17614;SDS011;8926;49.720;6.576;2023-12-20T05:48:25;0.93;;;0.70;;
17614;SDS011;8926;49.720;6.576;2023-12-20T05:50:51;0.80;;;0.70;;
17614;SDS011;8926;49.720;6.576;2023-12-20T05:53:16;1.40;;;0.83;;
17614;SDS011;8926;49.720;6.576;2023-12-20T05:55:41;1.07;;;0.80;;
17614;SDS011;8926;49.720;6.576;2023-12-20T05:58:07;0.70;;;0.70;;
17614;SDS011;8926;49.720;6.576;2023-12-20T06:00:32;1.10;;;0.70;;
17614;SDS011;8926;49.720;6.576;2023-12-20T06:02:57;0.60;;;0.60;;
17614;SDS011;8926;49.720;6.576;2023-12-20T06:05:22;1.13;;;0.90;;
17614;SDS011;8926;49.720;6.576;2023-12-20T06:07:48;1.40;;;0.93;;
17614;SDS011;8926;49.720;6.576;2023-12-20T06:10:14;0.87;;;0.87;;
17614;SDS011;8926;49.720;6.576;2023-12-20T06:12:40;0.60;;;0.60;;
17614;SDS011;8926;49.720;6.576;2023-12-20T06:15:05;1.57;;;1.07;;
17614;SDS011;8926;49.720;6.576;2023-12-20T06:17:31;1.53;;;1.30;;
17614;SDS011;8926;49.720;6.576;2023-12-20T06:19:57;2.23;;;1.20;;
17614;SDS011;8926;49.720;6.576;2023-12-20T06:22:22;1.53;;;0.93;;
17614;SDS011;8926;49.720;6.576;2023-12-20T06:24:47;0.87;;;0.87;;
17614;SDS011;8926;49.720;6.576;2023-12-20T06:27:13;0.63;;;0.63;;
17614;SDS011;8926;49.720;6.576;2023-12-20T06:29:38;1.03;;;0.93;;
17614;SDS011;8926;49.720;6.576;2023-12-20T06:32:03;0.90;;;0.90;;
17614;SDS011;8926;49.720;6.576;2023-12-20T06:34:29;1.13;;;1.03;;
17614;SDS011;8926;49.720;6.576;2023-12-20T06:36:54;0.97;;;0.93;;
17614;SDS011;8926;49.720;6.576;2023-12-20T06:39:20;1.10;;;0.87;;
17614;SDS011;8926;49.720;6.576;2023-12-20T06:41:45;0.80;;;0.80;;
17614;SDS011;8926;49.720;6.576;2023-12-20T06:44:10;0.80;;;0.80;;
17614;SDS011;8926;49.720;6.576;2023-12-20T06:46:35;1.07;;;1.07;;
17614;SDS011;8926;49.720;6.576;2023-12-20T06:49:01;1.77;;;1.17;;
17614;SDS011;8926;49.720;6.576;2023-12-20T06:51:26;0.83;;;0.83;;
17614;SDS011;8926;49.720;6.576;2023-12-20T06:53:52;1.17;;;0.80;;
17614;SDS011;8926;49.720;6.576;2023-12-20T06:56:17;1.17;;;0.90;;
17614;SDS011;8926;49.720;6.576;2023-12-20T06:58:43;1.33;;;1.00;;
17614;SDS011;8926;49.720;6.576;2023-12-20T07:01:14;1.57;;;0.90;;
17614;SDS011;8926;49.720;6.576;2023-12-20T07:03:41;1.63;;;1.00;;
17614;SDS011;8926;49.720;6.576;2023-12-20T07:06:06;1.47;;;1.37;;
17614;SDS011;8926;49.720;6.576;2023-12-20T07:08:32;1.43;;;0.97;;
17614;SDS011;8926;49.720;6.576;2023-12-20T07:10:57;1.40;;;1.10;;
17614;SDS011;8926;49.720;6.576;2023-12-20T07:13:23;2.37;;;1.40;;
17614;SDS011;8926;49.720;6.576;2023-12-20T07:15:48;2.60;;;1.50;;
17614;SDS011;8926;49.720;6.576;2023-12-20T07:18:14;2.03;;;1.20;;
17614;SDS011;8926;49.720;6.576;2023-12-20T07:20:39;2.00;;;1.60;;
17614;SDS011;8926;49.720;6.576;2023-12-20T07:23:04;2.13;;;1.43;;
17614;SDS011;8926;49.720;6.576;2023-12-20T07:25:30;1.53;;;1.10;;
17614;SDS011;8926;49.720;6.576;2023-12-20T07:27:57;2.97;;;1.70;;
17614;SDS011;8926;49.720;6.576;2023-12-20T07:30:25;3.00;;;1.93;;
17614;SDS011;8926;49.720;6.576;2023-12-20T07:32:50;4.00;;;2.23;;
17614;SDS011;8926;49.720;6.576;2023-12-20T07:35:17;2.50;;;1.90;;
17614;SDS011;8926;49.720;6.576;2023-12-20T07:37:42;2.07;;;1.73;;
17614;SDS011;8926;49.720;6.576;2023-12-20T07:40:08;1.83;;;1.50;;
17614;SDS011;8926;49.720;6.576;2023-12-20T07:42:33;1.30;;;1.20;;
17614;SDS011;8926;49.720;6.576;2023-12-20T07:44:58;3.73;;;2.30;;
17614;SDS011;8926;49.720;6.576;2023-12-20T07:47:24;2.57;;;2.03;;
17614;SDS011;8926;49.720;6.576;2023-12-20T07:49:50;2.40;;;2.10;;
17614;SDS011;8926;49.720;6.576;2023-12-20T07:52:17;2.93;;;2.17;;
17614;SDS011;8926;49.720;6.576;2023-12-20T07:54:43;1.80;;;1.70;;
17614;SDS011;8926;49.720;6.576;2023-12-20T07:57:08;1.47;;;1.37;;
17614;SDS011;8926;49.720;6.576;2023-12-20T07:59:33;2.40;;;1.87;;
17614;SDS011;8926;49.720;6.576;2023-12-20T08:01:59;1.93;;;1.50;;
17614;SDS011;8926;49.720;6.576;2023-12-20T08:04:24;1.50;;;1.40;;
17614;SDS011;8926;49.720;6.576;2023-12-20T08:06:50;3.30;;;1.90;;
17614;SDS011;8926;49.720;6.576;2023-12-20T08:09:15;3.10;;;1.67;;
17614;SDS011;8926;49.720;6.576;2023-12-20T08:11:44;2.80;;;1.60;;
17614;SDS011;8926;49.720;6.576;2023-12-20T08:14:12;2.17;;;1.43;;
17614;SDS011;8926;49.720;6.576;2023-12-20T08:16:38;1.97;;;1.40;;
17614;SDS011;8926;49.720;6.576;2023-12-20T08:19:03;2.50;;;1.67;;
17614;SDS011;8926;49.720;6.576;2023-12-20T08:21:28;1.93;;;1.50;;
17614;SDS011;8926;49.720;6.576;2023-12-20T08:23:53;1.90;;;1.57;;
17614;SDS011;8926;49.720;6.576;2023-12-20T08:26:19;3.67;;;2.17;;
17614;SDS011;8926;49.720;6.576;2023-12-20T08:28:48;3.33;;;1.87;;
17614;SDS011;8926;49.720;6.576;2023-12-20T08:31:16;1.93;;;1.80;;
17614;SDS011;8926;49.720;6.576;2023-12-20T08:33:43;2.03;;;1.67;;
17614;SDS011;8926;49.720;6.576;2023-12-20T08:36:10;1.60;;;1.50;;
17614;SDS011;8926;49.720;6.576;2023-12-20T08:38:35;3.53;;;1.97;;
17614;SDS011;8926;49.720;6.576;2023-12-20T08:41:01;5.03;;;3.07;;
17614;SDS011;8926;49.720;6.576;2023-12-20T08:43:28;8.37;;;4.40;;
17614;SDS011;8926;49.720;6.576;2023-12-20T08:45:53;5.50;;;3.40;;
17614;SDS011;8926;49.720;6.576;2023-12-20T08:48:19;5.70;;;3.50;;
17614;SDS011;8926;49.720;6.576;2023-12-20T08:50:44;9.90;;;4.13;;
17614;SDS011;8926;49.720;6.576;2023-12-20T08:53:09;3.70;;;3.03;;
17614;SDS011;8926;49.720;6.576;2023-12-20T08:55:34;7.33;;;5.10;;
17614;SDS011;8926;49.720;6.576;2023-12-20T08:58:00;6.57;;;3.20;;
17614;SDS011;8926;49.720;6.576;2023-12-20T09:00:25;3.50;;;3.20;;
17614;SDS011;8926;49.720;6.576;2023-12-20T09:02:52;4.33;;;2.90;;
17614;SDS011;8926;49.720;6.576;2023-12-20T09:05:18;2.70;;;2.50;;
17614;SDS011;8926;49.720;6.576;2023-12-20T09:07:44;2.50;;;2.30;;
17614;SDS011;8926;49.720;6.576;2023-12-20T09:10:09;2.93;;;2.00;;
17614;SDS011;8926;49.720;6.576;2023-12-20T09:12:34;4.97;;;3.33;;
17614;SDS011;8926;49.720;6.576;2023-12-20T09:15:00;3.80;;;3.27;;
17614;SDS011;8926;49.720;6.576;2023-12-20T09:17:27;8.17;;;4.33;;
17614;SDS011;8926;49.720;6.576;2023-12-20T09:19:53;3.87;;;3.47;;
17614;SDS011;8926;49.720;6.576;2023-12-20T09:22:19;4.23;;;3.10;;
17614;SDS011;8926;49.720;6.576;2023-12-20T09:24:44;5.57;;;3.73;;
17614;SDS011;8926;49.720;6.576;2023-12-20T09:27:09;4.67;;;3.30;;
17614;SDS011;8926;49.720;6.576;2023-12-20T09:29:35;5.07;;;4.03;;
17614;SDS011;8926;49.720;6.576;2023-12-20T09:32:00;3.67;;;3.37;;
17614;SDS011;8926;49.720;6.576;2023-12-20T09:34:26;11.37;;;4.70;;
17614;SDS011;8926;49.720;6.576;2023-12-20T09:36:52;5.03;;;4.00;;
17614;SDS011;8926;49.720;6.576;2023-12-20T09:39:17;6.13;;;3.90;;
17614;SDS011;8926;49.720;6.576;2023-12-20T09:42:03;6.00;;;3.63;;
17614;SDS011;8926;49.720;6.576;2023-12-20T09:44:29;5.60;;;3.30;;
17614;SDS011;8926;49.720;6.576;2023-12-20T09:46:55;6.23;;;4.20;;
17614;SDS011;8926;49.720;6.576;2023-12-20T09:49:21;9.90;;;4.23;;
17614;SDS011;8926;49.720;6.576;2023-12-20T09:51:47;7.07;;;3.50;;
17614;SDS011;8926;49.720;6.576;2023-12-20T09:54:15;4.37;;;3.40;;
17614;SDS011;8926;49.720;6.576;2023-12-20T09:56:41;6.43;;;3.47;;
17614;SDS011;8926;49.720;6.576;2023-12-20T09:59:07;6.33;;;3.27;;
17614;SDS011;8926;49.720;6.576;2023-12-20T10:01:32;7.00;;;3.20;;
17614;SDS011;8926;49.720;6.576;2023-12-20T10:03:59;5.73;;;3.30;;
17614;SDS011;8926;49.720;6.576;2023-12-20T10:06:25;7.13;;;3.83;;
17614;SDS011;8926;49.720;6.576;2023-12-20T10:08:51;6.73;;;3.17;;
17614;SDS011;8926;49.720;6.576;2023-12-20T10:11:17;8.60;;;3.90;;
17614;SDS011;8926;49.720;6.576;2023-12-20T10:13:44;6.27;;;3.00;;
17614;SDS011;8926;49.720;6.576;2023-12-20T10:16:12;7.33;;;3.20;;
17614;SDS011;8926;49.720;6.576;2023-12-20T10:18:38;10.00;;;3.30;;
17614;SDS011;8926;49.720;6.576;2023-12-20T10:21:04;6.37;;;2.83;;
17614;SDS011;8926;49.720;6.576;2023-12-20T10:23:29;3.70;;;2.50;;
17614;SDS011;8926;49.720;6.576;2023-12-20T10:25:56;5.17;;;2.73;;
17614;SDS011;8926;49.720;6.576;2023-12-20T10:28:23;7.13;;;2.80;;
17614;SDS011;8926;49.720;6.576;2023-12-20T10:30:52;4.40;;;2.40;;
17614;SDS011;8926;49.720;6.576;2023-12-20T10:33:24;4.47;;;2.40;;
17614;SDS011;8926;49.720;6.576;2023-12-20T10:35:53;5.83;;;2.90;;
17614;SDS011;8926;49.720;6.576;2023-12-20T10:38:20;7.67;;;2.57;;
17614;SDS011;8926;49.720;6.576;2023-12-20T10:40:46;5.83;;;2.80;;
17614;SDS011;8926;49.720;6.576;2023-12-20T10:43:11;7.17;;;2.77;;
17614;SDS011;8926;49.720;6.576;2023-12-20T10:45:37;3.67;;;2.10;;
17614;SDS011;8926;49.720;6.576;2023-12-20T10:48:03;5.20;;;2.30;;
17614;SDS011;8926;49.720;6.576;2023-12-20T10:50:29;7.77;;;2.60;;
17614;SDS011;8926;49.720;6.576;2023-12-20T10:52:56;4.77;;;2.83;;
17614;SDS011;8926;49.720;6.576;2023-12-20T10:55:22;2.20;;;1.90;;
17614;SDS011;8926;49.720;6.576;2023-12-20T10:57:49;4.03;;;2.10;;
17614;SDS011;8926;49.720;6.576;2023-12-20T11:00:20;3.30;;;2.13;;
17614;SDS011;8926;49.720;6.576;2023-12-20T11:02:48;3.80;;;2.17;;
17614;SDS011;8926;49.720;6.576;2023-12-20T11:05:36;4.70;;;2.27;;
17614;SDS011;8926;49.720;6.576;2023-12-20T11:08:19;6.00;;;2.30;;
17614;SDS011;8926;49.720;6.576;2023-12-20T11:10:58;8.60;;;3.13;;
17614;SDS011;8926;49.720;6.576;2023-12-20T11:13:32;4.60;;;2.37;;
17614;SDS011;8926;49.720;6.576;2023-12-20T11:16:17;5.97;;;2.77;;
17614;SDS011;8926;49.720;6.576;2023-12-20T11:18:44;5.97;;;2.63;;
17614;SDS011;8926;49.720;6.576;2023-12-20T11:21:10;4.33;;;1.77;;
17614;SDS011;8926;49.720;6.576;2023-12-20T11:23:35;5.10;;;2.77;;
17614;SDS011;8926;49.720;6.576;2023-12-20T11:26:02;6.97;;;2.17;;
17614;SDS011;8926;49.720;6.576;2023-12-20T11:28:28;5.23;;;2.47;;
17614;SDS011;8926;49.720;6.576;2023-12-20T11:30:55;7.73;;;2.53;;
17614;SDS011;8926;49.720;6.576;2023-12-20T11:33:25;6.80;;;2.40;;
17614;SDS011;8926;49.720;6.576;2023-12-20T11:35:57;5.87;;;2.30;;
17614;SDS011;8926;49.720;6.576;2023-12-20T11:38:25;8.53;;;3.00;;
17614;SDS011;8926;49.720;6.576;2023-12-20T11:40:51;8.50;;;4.23;;
17614;SDS011;8926;49.720;6.576;2023-12-20T11:43:32;7.90;;;3.07;;
17614;SDS011;8926;49.720;6.576;2023-12-20T11:46:04;5.70;;;2.30;;
17614;SDS011;8926;49.720;6.576;2023-12-20T11:48:34;4.43;;;1.80;;
17614;SDS011;8926;49.720;6.576;2023-12-20T11:51:01;7.70;;;2.47;;
17614;SDS011;8926;49.720;6.576;2023-12-20T11:53:28;6.83;;;2.10;;
17614;SDS011;8926;49.720;6.576;2023-12-20T11:55:55;6.57;;;2.30;;
17614;SDS011;8926;49.720;6.576;2023-12-20T11:58:21;5.13;;;2.60;;
17614;SDS011;8926;49.720;6.576;2023-12-20T12:00:48;4.50;;;2.13;;
17614;SDS011;8926;49.720;6.576;2023-12-20T12:03:14;7.53;;;2.30;;
17614;SDS011;8926;49.720;6.576;2023-12-20T12:05:40;4.67;;;1.97;;
17614;SDS011;8926;49.720;6.576;2023-12-20T12:08:06;5.67;;;2.43;;
17614;SDS011;8926;49.720;6.576;2023-12-20T12:10:32;6.70;;;2.97;;
17614;SDS011;8926;49.720;6.576;2023-12-20T12:12:58;6.07;;;2.37;;
17614;SDS011;8926;49.720;6.576;2023-12-20T12:15:23;6.70;;;2.70;;
17614;SDS011;8926;49.720;6.576;2023-12-20T12:17:55;5.77;;;2.57;;
17614;SDS011;8926;49.720;6.576;2023-12-20T12:20:21;6.00;;;2.37;;
17614;SDS011;8926;49.720;6.576;2023-12-20T12:23:08;5.27;;;2.20;;
17614;SDS011;8926;49.720;6.576;2023-12-20T12:25:35;7.33;;;2.67;;
17614;SDS011;8926;49.720;6.576;2023-12-20T12:28:02;4.33;;;2.23;;
17614;SDS011;8926;49.720;6.576;2023-12-20T12:30:28;4.60;;;2.10;;
17614;SDS011;8926;49.720;6.576;2023-12-20T12:32:53;6.40;;;2.10;;
17614;SDS011;8926;49.720;6.576;2023-12-20T12:35:19;2.97;;;1.87;;
17614;SDS011;8926;49.720;6.576;2023-12-20T12:37:45;6.93;;;2.30;;
17614;SDS011;8926;49.720;6.576;2023-12-20T12:40:14;8.50;;;2.70;;
17614;SDS011;8926;49.720;6.576;2023-12-20T12:42:41;6.50;;;2.53;;
17614;SDS011;8926;49.720;6.576;2023-12-20T12:45:08;5.37;;;2.70;;
17614;SDS011;8926;49.720;6.576;2023-12-20T12:47:34;7.97;;;2.73;;
17614;SDS011;8926;49.720;6.576;2023-12-20T12:49:59;6.00;;;2.97;;
17614;SDS011;8926;49.720;6.576;2023-12-20T12:52:25;5.87;;;3.30;;
17614;SDS011;8926;49.720;6.576;2023-12-20T12:54:51;4.83;;;2.47;;
17614;SDS011;8926;49.720;6.576;2023-12-20T12:57:17;4.17;;;2.77;;
17614;SDS011;8926;49.720;6.576;2023-12-20T12:59:43;4.67;;;2.33;;
17614;SDS011;8926;49.720;6.576;2023-12-20T13:02:11;10.63;;;3.40;;
17614;SDS011;8926;49.720;6.576;2023-12-20T13:04:36;6.43;;;3.27;;
17614;SDS011;8926;49.720;6.576;2023-12-20T13:07:02;5.47;;;3.17;;
17614;SDS011;8926;49.720;6.576;2023-12-20T13:09:27;8.73;;;3.50;;
17614;SDS011;8926;49.720;6.576;2023-12-20T13:11:53;6.90;;;2.67;;
17614;SDS011;8926;49.720;6.576;2023-12-20T13:14:18;8.60;;;3.27;;
17614;SDS011;8926;49.720;6.576;2023-12-20T13:16:43;7.53;;;3.20;;
17614;SDS011;8926;49.720;6.576;2023-12-20T13:19:10;5.27;;;2.53;;
17614;SDS011;8926;49.720;6.576;2023-12-20T13:21:36;7.43;;;2.90;;
17614;SDS011;8926;49.720;6.576;2023-12-20T13:24:01;4.90;;;2.27;;
17614;SDS011;8926;49.720;6.576;2023-12-20T13:26:26;5.27;;;3.30;;
17614;SDS011;8926;49.720;6.576;2023-12-20T13:28:52;7.90;;;4.03;;
17614;SDS011;8926;49.720;6.576;2023-12-20T13:31:17;6.07;;;3.47;;
17614;SDS011;8926;49.720;6.576;2023-12-20T13:33:45;8.90;;;6.27;;
17614;SDS011;8926;49.720;6.576;2023-12-20T13:36:10;8.37;;;4.43;;
17614;SDS011;8926;49.720;6.576;2023-12-20T13:38:35;5.97;;;2.90;;
17614;SDS011;8926;49.720;6.576;2023-12-20T13:41:01;4.33;;;2.93;;
17614;SDS011;8926;49.720;6.576;2023-12-20T13:43:26;8.33;;;3.60;;
17614;SDS011;8926;49.720;6.576;2023-12-20T13:45:51;6.83;;;3.43;;
17614;SDS011;8926;49.720;6.576;2023-12-20T13:48:16;8.33;;;3.97;;
17614;SDS011;8926;49.720;6.576;2023-12-20T13:50:43;7.70;;;4.67;;
17614;SDS011;8926;49.720;6.576;2023-12-20T13:53:09;9.20;;;4.40;;
17614;SDS011;8926;49.720;6.576;2023-12-20T13:55:34;9.20;;;3.30;;
17614;SDS011;8926;49.720;6.576;2023-12-20T13:57:59;10.90;;;3.60;;
17614;SDS011;8926;49.720;6.576;2023-12-20T14:00:25;4.70;;;2.67;;
17614;SDS011;8926;49.720;6.576;2023-12-20T14:02:50;7.43;;;2.90;;
17614;SDS011;8926;49.720;6.576;2023-12-20T14:05:16;7.77;;;2.90;;
17614;SDS011;8926;49.720;6.576;2023-12-20T14:07:45;7.37;;;3.23;;
17614;SDS011;8926;49.720;6.576;2023-12-20T14:10:11;6.23;;;3.33;;
17614;SDS011;8926;49.720;6.576;2023-12-20T14:12:38;6.03;;;2.90;;
17614;SDS011;8926;49.720;6.576;2023-12-20T14:15:04;10.37;;;4.20;;
17614;SDS011;8926;49.720;6.576;2023-12-20T14:17:34;9.07;;;3.77;;
17614;SDS011;8926;49.720;6.576;2023-12-20T14:19:59;4.83;;;2.97;;
17614;SDS011;8926;49.720;6.576;2023-12-20T14:22:25;10.77;;;3.80;;
17614;SDS011;8926;49.720;6.576;2023-12-20T14:24:50;5.97;;;2.83;;
17614;SDS011;8926;49.720;6.576;2023-12-20T14:27:15;7.27;;;3.10;;
17614;SDS011;8926;49.720;6.576;2023-12-20T14:29:40;7.27;;;3.10;;
17614;SDS011;8926;49.720;6.576;2023-12-20T14:32:06;6.23;;;2.70;;
17614;SDS011;8926;49.720;6.576;2023-12-20T14:34:31;5.60;;;2.90;;
17614;SDS011;8926;49.720;6.576;2023-12-20T14:36:56;7.40;;;3.23;;
17614;SDS011;8926;49.720;6.576;2023-12-20T14:39:22;6.90;;;3.40;;
17614;SDS011;8926;49.720;6.576;2023-12-20T14:41:48;7.87;;;3.47;;
17614;SDS011;8926;49.720;6.576;2023-12-20T14:44:13;4.20;;;2.43;;
17614;SDS011;8926;49.720;6.576;2023-12-20T14:46:38;8.83;;;3.23;;
17614;SDS011;8926;49.720;6.576;2023-12-20T14:49:04;7.37;;;3.60;;
17614;SDS011;8926;49.720;6.576;2023-12-20T14:51:30;4.13;;;2.70;;
17614;SDS011;8926;49.720;6.576;2023-12-20T14:53:56;7.40;;;3.73;;